sensor_id;sensor_type;location;lat;lon;timestamp;pressure;altitude;pressure_sealevel;temperature;humidity
45071;BME280;30836;48.906;9.140;2023-03-21T00:00:14;988.72;;;20.27;36.80
45071;BME280;30836;48.906;9.140;2023-03-21T00:01:15;988.70;;;20.28;36.92
45071;BME280;30836;48.906;9.140;2023-03-21T00:02:15;988.68;;;20.27;36.97
45071;BME280;30836;48.906;9.140;2023-03-21T00:03:16;988.68;;;20.27;36.98
45071;BME280;30836;48.906;9.140;2023-03-21T00:04:16;988.68;;;20.26;37.04
45071;BME280;30836;48.906;9.140;2023-03-21T00:05:17;988.66;;;20.25;37.03
45071;BME280;30836;48.906;9.140;2023-03-21T00:06:17;988.64;;;20.25;37.00
45071;BME280;30836;48.906;9.140;2023-03-21T00:07:18;988.66;;;20.25;37.04
45071;BME280;30836;48.906;9.140;2023-03-21T00:08:19;988.66;;;20.24;37.12
45071;BME280;30836;48.906;9.140;2023-03-21T00:09:20;988.66;;;20.24;37.07
45071;BME280;30836;48.906;9.140;2023-03-21T00:10:20;988.63;;;20.24;37.02
45071;BME280;30836;48.906;9.140;2023-03-21T00:11:21;988.63;;;20.23;36.91
45071;BME280;30836;48.906;9.140;2023-03-21T00:12:22;988.64;;;20.23;36.74
45071;BME280;30836;48.906;9.140;2023-03-21T00:13:22;988.64;;;20.23;36.61
45071;BME280;30836;48.906;9.140;2023-03-21T00:14:23;988.64;;;20.23;36.45
45071;BME280;30836;48.906;9.140;2023-03-21T00:15:24;988.64;;;20.23;36.53
45071;BME280;30836;48.906;9.140;2023-03-21T00:16:25;988.64;;;20.22;36.53
45071;BME280;30836;48.906;9.140;2023-03-21T00:17:25;988.64;;;20.22;36.59
45071;BME280;30836;48.906;9.140;2023-03-21T00:18:26;988.64;;;20.21;36.65
45071;BME280;30836;48.906;9.140;2023-03-21T00:19:26;988.64;;;20.21;36.72
45071;BME280;30836;48.906;9.140;2023-03-21T00:20:26;988.63;;;20.20;36.82
45071;BME280;30836;48.906;9.140;2023-03-21T00:21:27;988.63;;;20.20;36.73
45071;BME280;30836;48.906;9.140;2023-03-21T00:22:28;988.63;;;20.20;36.76
45071;BME280;30836;48.906;9.140;2023-03-21T00:23:29;988.59;;;20.20;36.77
45071;BME280;30836;48.906;9.140;2023-03-21T00:24:30;988.61;;;20.19;36.83
45071;BME280;30836;48.906;9.140;2023-03-21T00:25:31;988.59;;;20.19;36.94
45071;BME280;30836;48.906;9.140;2023-03-21T00:26:31;988.59;;;20.19;36.97
45071;BME280;30836;48.906;9.140;2023-03-21T00:27:32;988.59;;;20.19;36.89
45071;BME280;30836;48.906;9.140;2023-03-21T00:28:33;988.57;;;20.19;36.85
45071;BME280;30836;48.906;9.140;2023-03-21T00:29:33;988.57;;;20.19;36.84
45071;BME280;30836;48.906;9.140;2023-03-21T00:30:34;988.57;;;20.19;36.78
45071;BME280;30836;48.906;9.140;2023-03-21T00:31:34;988.57;;;20.19;36.74
45071;BME280;30836;48.906;9.140;2023-03-21T00:32:35;988.57;;;20.19;36.62
45071;BME280;30836;48.906;9.140;2023-03-21T00:33:35;988.57;;;20.19;36.60
45071;BME280;30836;48.906;9.140;2023-03-21T00:34:36;988.55;;;20.19;36.72
45071;BME280;30836;48.906;9.140;2023-03-21T00:35:37;988.53;;;20.19;36.80
45071;BME280;30836;48.906;9.140;2023-03-21T00:36:38;988.53;;;20.19;36.85
45071;BME280;30836;48.906;9.140;2023-03-21T00:37:38;988.51;;;20.19;36.73
45071;BME280;30836;48.906;9.140;2023-03-21T00:38:39;988.49;;;20.19;36.62
45071;BME280;30836;48.906;9.140;2023-03-21T00:39:39;988.47;;;20.19;36.53
45071;BME280;30836;48.906;9.140;2023-03-21T00:40:39;988.45;;;20.18;36.54
45071;BME280;30836;48.906;9.140;2023-03-21T00:41:40;988.43;;;20.18;36.70
45071;BME280;30836;48.906;9.140;2023-03-21T00:42:40;988.41;;;20.18;36.72
45071;BME280;30836;48.906;9.140;2023-03-21T00:43:41;988.41;;;20.18;36.70
45071;BME280;30836;48.906;9.140;2023-03-21T00:44:41;988.35;;;20.18;36.63
45071;BME280;30836;48.906;9.140;2023-03-21T00:45:42;988.33;;;20.17;36.15
45071;BME280;30836;48.906;9.140;2023-03-21T00:46:43;988.33;;;20.17;36.03
45071;BME280;30836;48.906;9.140;2023-03-21T00:47:44;988.31;;;20.16;36.10
45071;BME280;30836;48.906;9.140;2023-03-21T00:48:44;988.29;;;20.15;36.05
45071;BME280;30836;48.906;9.140;2023-03-21T00:49:44;988.27;;;20.09;36.19
45071;BME280;30836;48.906;9.140;2023-03-21T00:50:45;988.25;;;19.96;36.51
45071;BME280;30836;48.906;9.140;2023-03-21T00:51:46;988.25;;;19.80;36.84
45071;BME280;30836;48.906;9.140;2023-03-21T00:52:46;988.25;;;19.66;37.18
45071;BME280;30836;48.906;9.140;2023-03-21T00:53:47;988.25;;;19.53;37.29
45071;BME280;30836;48.906;9.140;2023-03-21T00:54:47;988.25;;;19.41;37.44
45071;BME280;30836;48.906;9.140;2023-03-21T00:55:48;988.23;;;19.32;37.61
45071;BME280;30836;48.906;9.140;2023-03-21T00:56:49;988.21;;;19.24;37.82
45071;BME280;30836;48.906;9.140;2023-03-21T00:57:49;988.23;;;19.17;38.07
45071;BME280;30836;48.906;9.140;2023-03-21T00:58:50;988.21;;;19.11;37.99
45071;BME280;30836;48.906;9.140;2023-03-21T00:59:50;988.19;;;19.05;37.78
45071;BME280;30836;48.906;9.140;2023-03-21T01:00:50;988.19;;;19.00;37.65
45071;BME280;30836;48.906;9.140;2023-03-21T01:01:51;988.17;;;18.97;37.76
45071;BME280;30836;48.906;9.140;2023-03-21T01:02:51;988.19;;;18.93;37.89
45071;BME280;30836;48.906;9.140;2023-03-21T01:03:52;988.17;;;18.90;37.77
45071;BME280;30836;48.906;9.140;2023-03-21T01:04:52;988.19;;;18.88;37.74
45071;BME280;30836;48.906;9.140;2023-03-21T01:05:53;988.19;;;18.86;38.10
45071;BME280;30836;48.906;9.140;2023-03-21T01:06:53;988.21;;;18.84;38.45
45071;BME280;30836;48.906;9.140;2023-03-21T01:07:54;988.17;;;18.83;38.61
45071;BME280;30836;48.906;9.140;2023-03-21T01:08:54;988.15;;;18.82;38.80
45071;BME280;30836;48.906;9.140;2023-03-21T01:09:55;988.17;;;18.80;38.92
45071;BME280;30836;48.906;9.140;2023-03-21T01:10:55;988.17;;;18.79;39.04
45071;BME280;30836;48.906;9.140;2023-03-21T01:11:56;988.17;;;18.77;39.08
45071;BME280;30836;48.906;9.140;2023-03-21T01:12:56;988.19;;;18.77;39.11
45071;BME280;30836;48.906;9.140;2023-03-21T01:13:57;988.19;;;18.76;39.06
45071;BME280;30836;48.906;9.140;2023-03-21T01:14:57;988.19;;;18.76;38.98
45071;BME280;30836;48.906;9.140;2023-03-21T01:15:58;988.17;;;18.75;39.02
45071;BME280;30836;48.906;9.140;2023-03-21T01:16:59;988.19;;;18.74;39.08
45071;BME280;30836;48.906;9.140;2023-03-21T01:18:00;988.17;;;18.73;39.18
45071;BME280;30836;48.906;9.140;2023-03-21T01:19:01;988.15;;;18.72;39.40
45071;BME280;30836;48.906;9.140;2023-03-21T01:20:02;988.15;;;18.71;39.58
45071;BME280;30836;48.906;9.140;2023-03-21T01:21:05;988.13;;;18.71;39.65
45071;BME280;30836;48.906;9.140;2023-03-21T01:22:11;988.15;;;18.71;39.69
45071;BME280;30836;48.906;9.140;2023-03-21T01:23:12;988.13;;;18.72;39.70
45071;BME280;30836;48.906;9.140;2023-03-21T01:24:13;988.15;;;18.75;39.54
45071;BME280;30836;48.906;9.140;2023-03-21T01:25:14;988.13;;;18.83;39.20
45071;BME280;30836;48.906;9.140;2023-03-21T01:26:15;988.12;;;18.96;38.79
45071;BME280;30836;48.906;9.140;2023-03-21T01:27:15;988.12;;;19.10;38.50
45071;BME280;30836;48.906;9.140;2023-03-21T01:28:16;988.12;;;19.22;38.32
45071;BME280;30836;48.906;9.140;2023-03-21T01:29:16;988.10;;;19.32;38.11
45071;BME280;30836;48.906;9.140;2023-03-21T01:30:17;988.06;;;19.41;37.97
45071;BME280;30836;48.906;9.140;2023-03-21T01:31:17;988.06;;;19.49;37.90
45071;BME280;30836;48.906;9.140;2023-03-21T01:32:18;988.06;;;19.55;37.85
45071;BME280;30836;48.906;9.140;2023-03-21T01:33:19;988.02;;;19.60;37.81
45071;BME280;30836;48.906;9.140;2023-03-21T01:34:21;988.04;;;19.64;37.74
45071;BME280;30836;48.906;9.140;2023-03-21T01:35:21;988.02;;;19.60;37.95
45071;BME280;30836;48.906;9.140;2023-03-21T01:36:23;988.04;;;19.49;38.28
45071;BME280;30836;48.906;9.140;2023-03-21T01:37:25;988.04;;;19.35;38.55
45071;BME280;30836;48.906;9.140;2023-03-21T01:38:25;988.02;;;19.24;38.77
45071;BME280;30836;48.906;9.140;2023-03-21T01:39:26;988.02;;;19.13;38.98
45071;BME280;30836;48.906;9.140;2023-03-21T01:40:26;988.02;;;19.03;39.16
45071;BME280;30836;48.906;9.140;2023-03-21T01:41:28;988.02;;;18.95;39.31
45071;BME280;30836;48.906;9.140;2023-03-21T01:42:30;988.02;;;18.89;39.31
45071;BME280;30836;48.906;9.140;2023-03-21T01:43:32;988.02;;;18.85;39.35
45071;BME280;30836;48.906;9.140;2023-03-21T01:46:56;988.00;;;18.74;39.66
45071;BME280;30836;48.906;9.140;2023-03-21T01:47:56;988.00;;;18.69;39.76
45071;BME280;30836;48.906;9.140;2023-03-21T01:48:58;988.02;;;18.65;39.82
45071;BME280;30836;48.906;9.140;2023-03-21T01:50:06;988.00;;;18.63;39.85
45071;BME280;30836;48.906;9.140;2023-03-21T01:51:07;988.00;;;18.62;39.78
45071;BME280;30836;48.906;9.140;2023-03-21T01:52:10;988.04;;;18.65;39.51
45071;BME280;30836;48.906;9.140;2023-03-21T01:53:14;988.02;;;18.70;39.33
45071;BME280;30836;48.906;9.140;2023-03-21T01:54:20;988.00;;;18.72;39.26
45071;BME280;30836;48.906;9.140;2023-03-21T01:55:24;988.00;;;18.71;39.41
45071;BME280;30836;48.906;9.140;2023-03-21T01:56:25;988.00;;;18.70;39.52
45071;BME280;30836;48.906;9.140;2023-03-21T01:57:31;987.96;;;18.68;39.60
45071;BME280;30836;48.906;9.140;2023-03-21T01:58:37;987.98;;;18.67;39.60
45071;BME280;30836;48.906;9.140;2023-03-21T01:59:42;987.96;;;18.65;39.61
45071;BME280;30836;48.906;9.140;2023-03-21T02:00:45;987.98;;;18.63;39.65
45071;BME280;30836;48.906;9.140;2023-03-21T02:01:48;987.96;;;18.62;39.64
45071;BME280;30836;48.906;9.140;2023-03-21T02:02:50;987.94;;;18.62;39.63
45071;BME280;30836;48.906;9.140;2023-03-21T02:03:50;987.94;;;18.59;39.72
45071;BME280;30836;48.906;9.140;2023-03-21T02:04:51;987.90;;;18.55;39.81
45071;BME280;30836;48.906;9.140;2023-03-21T02:07:06;987.92;;;18.55;39.71
45071;BME280;30836;48.906;9.140;2023-03-21T02:08:11;987.90;;;18.56;39.79
45071;BME280;30836;48.906;9.140;2023-03-21T02:09:13;987.86;;;18.53;39.91
45071;BME280;30836;48.906;9.140;2023-03-21T02:10:18;987.84;;;18.52;39.93
45071;BME280;30836;48.906;9.140;2023-03-21T02:11:19;987.84;;;18.58;39.68
45071;BME280;30836;48.906;9.140;2023-03-21T02:12:20;987.84;;;18.71;39.38
45071;BME280;30836;48.906;9.140;2023-03-21T02:13:21;987.82;;;18.85;39.11
45071;BME280;30836;48.906;9.140;2023-03-21T02:14:21;987.82;;;18.97;38.87
45071;BME280;30836;48.906;9.140;2023-03-21T02:15:22;987.84;;;19.07;38.58
45071;BME280;30836;48.906;9.140;2023-03-21T02:17:38;987.80;;;19.24;38.18
45071;BME280;30836;48.906;9.140;2023-03-21T02:21:06;987.80;;;19.43;37.98
45071;BME280;30836;48.906;9.140;2023-03-21T02:26:43;987.78;;;19.57;37.97
45071;BME280;30836;48.906;9.140;2023-03-21T02:27:45;987.76;;;19.58;38.01
45071;BME280;30836;48.906;9.140;2023-03-21T02:28:56;987.76;;;19.58;38.08
45071;BME280;30836;48.906;9.140;2023-03-21T02:31:17;987.74;;;19.59;38.00
45071;BME280;30836;48.906;9.140;2023-03-21T02:33:36;987.72;;;19.58;38.04
45071;BME280;30836;48.906;9.140;2023-03-21T02:38:15;987.70;;;19.63;38.14
45071;BME280;30836;48.906;9.140;2023-03-21T02:40:35;987.70;;;19.65;38.22
45071;BME280;30836;48.906;9.140;2023-03-21T02:42:53;987.66;;;19.66;38.28
45071;BME280;30836;48.906;9.140;2023-03-21T02:44:05;987.66;;;19.66;38.27
45071;BME280;30836;48.906;9.140;2023-03-21T02:45:19;987.66;;;19.67;38.20
45071;BME280;30836;48.906;9.140;2023-03-21T02:46:18;987.66;;;19.67;38.05
45071;BME280;30836;48.906;9.140;2023-03-21T02:47:27;987.66;;;19.66;38.07
45071;BME280;30836;48.906;9.140;2023-03-21T02:48:36;987.62;;;19.65;38.10
45071;BME280;30836;48.906;9.140;2023-03-21T02:50:52;987.60;;;19.63;38.01
45071;BME280;30836;48.906;9.140;2023-03-21T02:51:56;987.60;;;19.63;37.95
45071;BME280;30836;48.906;9.140;2023-03-21T02:52:58;987.60;;;19.62;38.04
45071;BME280;30836;48.906;9.140;2023-03-21T02:54:04;987.62;;;19.61;38.01
45071;BME280;30836;48.906;9.140;2023-03-21T02:55:12;987.62;;;19.61;38.03
45071;BME280;30836;48.906;9.140;2023-03-21T02:56:15;987.60;;;19.61;38.01
45071;BME280;30836;48.906;9.140;2023-03-21T02:57:17;987.62;;;19.61;37.98
45071;BME280;30836;48.906;9.140;2023-03-21T02:57:29;987.60;;;19.60;37.95
45071;BME280;30836;48.906;9.140;2023-03-21T02:58:30;987.60;;;19.58;38.02
45071;BME280;30836;48.906;9.140;2023-03-21T02:59:31;987.58;;;19.49;38.47
45071;BME280;30836;48.906;9.140;2023-03-21T03:00:33;987.60;;;19.33;38.84
45071;BME280;30836;48.906;9.140;2023-03-21T03:01:34;987.58;;;19.17;39.17
45071;BME280;30836;48.906;9.140;2023-03-21T03:02:35;987.60;;;19.03;39.35
45071;BME280;30836;48.906;9.140;2023-03-21T03:03:37;987.60;;;18.92;39.40
45071;BME280;30836;48.906;9.140;2023-03-21T03:04:37;987.60;;;18.81;39.53
45071;BME280;30836;48.906;9.140;2023-03-21T03:10:10;987.60;;;18.44;40.29
45071;BME280;30836;48.906;9.140;2023-03-21T03:13:42;987.57;;;18.33;40.42
45071;BME280;30836;48.906;9.140;2023-03-21T03:14:49;987.57;;;18.33;40.43
45071;BME280;30836;48.906;9.140;2023-03-21T03:18:59;987.55;;;18.70;39.58
45071;BME280;30836;48.906;9.140;2023-03-21T03:19:31;987.55;;;18.84;39.37
45071;BME280;30836;48.906;9.140;2023-03-21T03:20:44;987.55;;;18.95;39.24
45071;BME280;30836;48.906;9.140;2023-03-21T03:21:48;987.57;;;19.04;39.03
45071;BME280;30836;48.906;9.140;2023-03-21T03:25:18;987.57;;;19.23;38.75
45071;BME280;30836;48.906;9.140;2023-03-21T03:27:31;987.51;;;19.27;38.70
45071;BME280;30836;48.906;9.140;2023-03-21T03:28:38;987.51;;;19.28;38.63
45071;BME280;30836;48.906;9.140;2023-03-21T03:29:41;987.51;;;19.29;38.64
45071;BME280;30836;48.906;9.140;2023-03-21T03:30:45;987.51;;;19.31;38.59
45071;BME280;30836;48.906;9.140;2023-03-21T03:31:55;987.53;;;19.32;38.60
45071;BME280;30836;48.906;9.140;2023-03-21T03:32:59;987.51;;;19.32;38.60
45071;BME280;30836;48.906;9.140;2023-03-21T03:34:06;987.49;;;19.33;38.57
45071;BME280;30836;48.906;9.140;2023-03-21T03:35:13;987.51;;;19.34;38.55
45071;BME280;30836;48.906;9.140;2023-03-21T03:36:17;987.51;;;19.34;38.60
45071;BME280;30836;48.906;9.140;2023-03-21T03:37:20;987.51;;;19.33;38.60
45071;BME280;30836;48.906;9.140;2023-03-21T03:38:24;987.51;;;19.31;38.65
45071;BME280;30836;48.906;9.140;2023-03-21T03:39:29;987.49;;;19.29;38.74
45071;BME280;30836;48.906;9.140;2023-03-21T03:40:40;987.49;;;19.27;38.84
45071;BME280;30836;48.906;9.140;2023-03-21T03:44:05;987.45;;;19.21;38.94
45071;BME280;30836;48.906;9.140;2023-03-21T03:45:07;987.43;;;19.18;38.96
45071;BME280;30836;48.906;9.140;2023-03-21T03:46:15;987.43;;;19.15;39.01
45071;BME280;30836;48.906;9.140;2023-03-21T03:47:20;987.47;;;19.13;39.07
45071;BME280;30836;48.906;9.140;2023-03-21T03:48:29;987.43;;;19.09;39.19
45071;BME280;30836;48.906;9.140;2023-03-21T03:49:40;987.43;;;19.07;39.24
45071;BME280;30836;48.906;9.140;2023-03-21T03:50:49;987.43;;;19.06;39.21
45071;BME280;30836;48.906;9.140;2023-03-21T03:54:13;987.43;;;19.06;39.25
45071;BME280;30836;48.906;9.140;2023-03-21T03:55:20;987.43;;;19.05;39.20
45071;BME280;30836;48.906;9.140;2023-03-21T03:56:22;987.43;;;19.05;39.37
45071;BME280;30836;48.906;9.140;2023-03-21T03:57:25;987.41;;;19.03;39.32
45071;BME280;30836;48.906;9.140;2023-03-21T03:58:25;987.43;;;19.03;39.37
45071;BME280;30836;48.906;9.140;2023-03-21T03:59:26;987.41;;;19.03;39.40
45071;BME280;30836;48.906;9.140;2023-03-21T04:00:27;987.43;;;19.03;39.44
45071;BME280;30836;48.906;9.140;2023-03-21T04:01:33;987.43;;;19.02;39.54
45071;BME280;30836;48.906;9.140;2023-03-21T04:02:34;987.43;;;19.01;39.54
45071;BME280;30836;48.906;9.140;2023-03-21T04:03:34;987.45;;;19.01;39.56
45071;BME280;30836;48.906;9.140;2023-03-21T04:04:39;987.43;;;19.01;39.53
45071;BME280;30836;48.906;9.140;2023-03-21T04:05:39;987.43;;;19.01;39.56
45071;BME280;30836;48.906;9.140;2023-03-21T04:06:40;987.43;;;19.02;39.57
45071;BME280;30836;48.906;9.140;2023-03-21T04:07:40;987.39;;;19.03;39.51
45071;BME280;30836;48.906;9.140;2023-03-21T04:08:41;987.39;;;19.05;39.36
45071;BME280;30836;48.906;9.140;2023-03-21T04:09:42;987.39;;;19.05;39.45
45071;BME280;30836;48.906;9.140;2023-03-21T04:10:42;987.39;;;19.04;39.50
45071;BME280;30836;48.906;9.140;2023-03-21T04:11:43;987.39;;;19.02;39.51
45071;BME280;30836;48.906;9.140;2023-03-21T04:12:43;987.41;;;19.00;39.58
45071;BME280;30836;48.906;9.140;2023-03-21T04:13:44;987.43;;;18.98;39.69
45071;BME280;30836;48.906;9.140;2023-03-21T04:14:44;987.41;;;18.98;39.67
45071;BME280;30836;48.906;9.140;2023-03-21T04:15:45;987.43;;;18.97;39.74
45071;BME280;30836;48.906;9.140;2023-03-21T04:16:45;987.41;;;18.95;39.79
45071;BME280;30836;48.906;9.140;2023-03-21T04:17:45;987.41;;;18.94;39.76
45071;BME280;30836;48.906;9.140;2023-03-21T04:18:46;987.39;;;18.93;39.79
45071;BME280;30836;48.906;9.140;2023-03-21T04:19:46;987.39;;;18.92;39.87
45071;BME280;30836;48.906;9.140;2023-03-21T04:20:47;987.39;;;18.91;39.95
45071;BME280;30836;48.906;9.140;2023-03-21T04:21:47;987.39;;;18.90;39.99
45071;BME280;30836;48.906;9.140;2023-03-21T04:22:48;987.39;;;18.90;40.03
45071;BME280;30836;48.906;9.140;2023-03-21T04:23:48;987.39;;;18.90;40.07
45071;BME280;30836;48.906;9.140;2023-03-21T04:24:49;987.39;;;18.91;40.05
45071;BME280;30836;48.906;9.140;2023-03-21T04:25:49;987.35;;;18.92;40.03
45071;BME280;30836;48.906;9.140;2023-03-21T04:26:49;987.37;;;18.93;40.04
45071;BME280;30836;48.906;9.140;2023-03-21T04:27:50;987.33;;;18.94;40.05
45071;BME280;30836;48.906;9.140;2023-03-21T04:28:50;987.37;;;18.95;40.02
45071;BME280;30836;48.906;9.140;2023-03-21T04:29:51;987.35;;;18.97;39.95
45071;BME280;30836;48.906;9.140;2023-03-21T04:30:51;987.35;;;18.99;39.92
45071;BME280;30836;48.906;9.140;2023-03-21T04:31:51;987.35;;;19.01;39.89
45071;BME280;30836;48.906;9.140;2023-03-21T04:32:52;987.35;;;19.02;39.84
45071;BME280;30836;48.906;9.140;2023-03-21T04:33:53;987.35;;;19.04;39.78
45071;BME280;30836;48.906;9.140;2023-03-21T04:34:53;987.31;;;19.05;39.74
45071;BME280;30836;48.906;9.140;2023-03-21T04:35:54;987.31;;;19.07;39.72
45071;BME280;30836;48.906;9.140;2023-03-21T04:36:54;987.35;;;19.08;39.77
45071;BME280;30836;48.906;9.140;2023-03-21T04:37:55;987.33;;;19.09;39.81
45071;BME280;30836;48.906;9.140;2023-03-21T04:38:56;987.33;;;19.09;39.83
45071;BME280;30836;48.906;9.140;2023-03-21T04:39:56;987.31;;;19.09;39.81
45071;BME280;30836;48.906;9.140;2023-03-21T04:40:57;987.31;;;19.09;39.84
45071;BME280;30836;48.906;9.140;2023-03-21T04:41:57;987.29;;;19.10;39.81
45071;BME280;30836;48.906;9.140;2023-03-21T04:42:58;987.27;;;19.10;39.79
45071;BME280;30836;48.906;9.140;2023-03-21T04:43:58;987.27;;;19.10;39.80
45071;BME280;30836;48.906;9.140;2023-03-21T04:44:59;987.29;;;19.10;39.76
45071;BME280;30836;48.906;9.140;2023-03-21T04:46:00;987.27;;;19.11;39.72
45071;BME280;30836;48.906;9.140;2023-03-21T04:47:00;987.27;;;19.11;39.70
45071;BME280;30836;48.906;9.140;2023-03-21T04:48:00;987.27;;;19.12;39.63
45071;BME280;30836;48.906;9.140;2023-03-21T04:49:01;987.29;;;19.12;39.62
45071;BME280;30836;48.906;9.140;2023-03-21T04:50:02;987.27;;;19.12;39.59
45071;BME280;30836;48.906;9.140;2023-03-21T04:51:03;987.29;;;19.12;39.57
45071;BME280;30836;48.906;9.140;2023-03-21T04:52:04;987.27;;;19.12;39.55
45071;BME280;30836;48.906;9.140;2023-03-21T04:53:04;987.27;;;19.12;39.56
45071;BME280;30836;48.906;9.140;2023-03-21T04:54:05;987.19;;;19.11;39.62
45071;BME280;30836;48.906;9.140;2023-03-21T04:55:05;987.19;;;19.12;39.67
45071;BME280;30836;48.906;9.140;2023-03-21T04:56:06;987.27;;;19.12;39.67
45071;BME280;30836;48.906;9.140;2023-03-21T04:57:07;987.19;;;19.12;39.66
45071;BME280;30836;48.906;9.140;2023-03-21T04:58:07;987.17;;;19.12;39.69
45071;BME280;30836;48.906;9.140;2023-03-21T04:59:09;987.17;;;19.12;39.70
45071;BME280;30836;48.906;9.140;2023-03-21T05:00:12;987.17;;;19.12;39.73
45071;BME280;30836;48.906;9.140;2023-03-21T05:01:13;987.17;;;19.11;39.79
45071;BME280;30836;48.906;9.140;2023-03-21T05:02:13;987.15;;;19.10;39.82
45071;BME280;30836;48.906;9.140;2023-03-21T05:03:13;987.13;;;19.10;39.84
45071;BME280;30836;48.906;9.140;2023-03-21T05:04:14;987.15;;;19.09;39.87
45071;BME280;30836;48.906;9.140;2023-03-21T05:04:25;987.11;;;19.08;39.85
45071;BME280;30836;48.906;9.140;2023-03-21T05:05:26;987.15;;;19.06;39.99
45071;BME280;30836;48.906;9.140;2023-03-21T05:06:27;987.15;;;18.97;40.39
45071;BME280;30836;48.906;9.140;2023-03-21T05:07:28;987.19;;;18.81;40.77
45071;BME280;30836;48.906;9.140;2023-03-21T05:08:28;987.17;;;18.64;41.17
45071;BME280;30836;48.906;9.140;2023-03-21T05:09:29;987.13;;;18.49;41.47
45071;BME280;30836;48.906;9.140;2023-03-21T05:10:29;987.17;;;18.34;41.76
45071;BME280;30836;48.906;9.140;2023-03-21T05:11:30;987.17;;;18.22;41.97
45071;BME280;30836;48.906;9.140;2023-03-21T05:12:32;987.17;;;18.13;42.16
45071;BME280;30836;48.906;9.140;2023-03-21T05:13:33;987.19;;;18.08;42.25
45071;BME280;30836;48.906;9.140;2023-03-21T05:14:33;987.27;;;18.11;41.95
45071;BME280;30836;48.906;9.140;2023-03-21T05:15:34;987.27;;;18.21;41.68
45071;BME280;30836;48.906;9.140;2023-03-21T05:16:34;987.19;;;18.33;41.45
45071;BME280;30836;48.906;9.140;2023-03-21T05:17:35;987.27;;;18.44;41.26
45071;BME280;30836;48.906;9.140;2023-03-21T05:18:36;987.29;;;18.53;41.18
45071;BME280;30836;48.906;9.140;2023-03-21T05:19:36;987.29;;;18.60;41.03
45071;BME280;30836;48.906;9.140;2023-03-21T05:20:37;987.31;;;18.65;40.96
45071;BME280;30836;48.906;9.140;2023-03-21T05:21:39;987.31;;;18.70;40.90
45071;BME280;30836;48.906;9.140;2023-03-21T05:22:40;987.33;;;18.74;40.82
45071;BME280;30836;48.906;9.140;2023-03-21T05:23:41;987.31;;;18.76;40.77
45071;BME280;30836;48.906;9.140;2023-03-21T05:24:41;987.29;;;18.71;41.02
45071;BME280;30836;48.906;9.140;2023-03-21T05:25:42;987.29;;;18.59;41.30
45071;BME280;30836;48.906;9.140;2023-03-21T05:26:43;987.29;;;18.45;41.49
45071;BME280;30836;48.906;9.140;2023-03-21T05:27:44;987.29;;;18.32;41.67
45071;BME280;30836;48.906;9.140;2023-03-21T05:28:44;987.29;;;18.21;41.82
45071;BME280;30836;48.906;9.140;2023-03-21T05:29:45;987.29;;;18.10;42.04
45071;BME280;30836;48.906;9.140;2023-03-21T05:30:46;987.27;;;18.01;42.30
45071;BME280;30836;48.906;9.140;2023-03-21T05:31:46;987.29;;;17.91;42.40
45071;BME280;30836;48.906;9.140;2023-03-21T05:32:47;987.29;;;17.84;42.55
45071;BME280;30836;48.906;9.140;2023-03-21T05:33:47;987.29;;;17.78;42.72
45071;BME280;30836;48.906;9.140;2023-03-21T05:34:47;987.27;;;17.72;42.79
45071;BME280;30836;48.906;9.140;2023-03-21T05:35:51;987.29;;;17.67;42.92
45071;BME280;30836;48.906;9.140;2023-03-21T05:36:51;987.29;;;17.63;42.95
45071;BME280;30836;48.906;9.140;2023-03-21T05:37:52;987.33;;;17.61;43.00
45071;BME280;30836;48.906;9.140;2023-03-21T05:38:52;987.29;;;17.60;42.99
45071;BME280;30836;48.906;9.140;2023-03-21T05:39:53;987.29;;;17.60;42.96
45071;BME280;30836;48.906;9.140;2023-03-21T05:40:53;987.27;;;17.59;42.92
45071;BME280;30836;48.906;9.140;2023-03-21T05:41:54;987.29;;;17.57;43.00
45071;BME280;30836;48.906;9.140;2023-03-21T05:42:54;987.29;;;17.55;43.09
45071;BME280;30836;48.906;9.140;2023-03-21T05:43:55;987.29;;;17.54;43.11
45071;BME280;30836;48.906;9.140;2023-03-21T05:44:55;987.29;;;17.52;43.08
45071;BME280;30836;48.906;9.140;2023-03-21T05:45:56;987.29;;;17.51;43.25
45071;BME280;30836;48.906;9.140;2023-03-21T05:46:56;987.31;;;17.47;43.31
45071;BME280;30836;48.906;9.140;2023-03-21T05:47:56;987.29;;;17.45;43.35
45071;BME280;30836;48.906;9.140;2023-03-21T05:48:57;987.31;;;17.44;43.33
45071;BME280;30836;48.906;9.140;2023-03-21T05:49:57;987.33;;;17.44;43.34
45071;BME280;30836;48.906;9.140;2023-03-21T05:50:58;987.31;;;17.42;43.35
45071;BME280;30836;48.906;9.140;2023-03-21T05:51:58;987.33;;;17.41;43.38
45071;BME280;30836;48.906;9.140;2023-03-21T05:52:59;987.35;;;17.40;43.44
45071;BME280;30836;48.906;9.140;2023-03-21T05:53:59;987.37;;;17.41;43.41
45071;BME280;30836;48.906;9.140;2023-03-21T05:54:59;987.35;;;17.42;43.38
45071;BME280;30836;48.906;9.140;2023-03-21T05:56:00;987.33;;;17.44;43.37
45071;BME280;30836;48.906;9.140;2023-03-21T05:57:01;987.37;;;17.46;43.31
45071;BME280;30836;48.906;9.140;2023-03-21T05:58:03;987.35;;;17.48;43.24
45071;BME280;30836;48.906;9.140;2023-03-21T05:59:03;987.35;;;17.58;42.85
45071;BME280;30836;48.906;9.140;2023-03-21T06:00:04;987.33;;;17.72;42.49
45071;BME280;30836;48.906;9.140;2023-03-21T06:01:06;987.35;;;17.86;42.26
45071;BME280;30836;48.906;9.140;2023-03-21T06:02:06;987.35;;;18.00;42.07
45071;BME280;30836;48.906;9.140;2023-03-21T06:03:07;987.37;;;18.12;41.87
45071;BME280;30836;48.906;9.140;2023-03-21T06:04:07;987.41;;;18.22;41.72
45071;BME280;30836;48.906;9.140;2023-03-21T06:05:08;987.37;;;18.30;41.52
45071;BME280;30836;48.906;9.140;2023-03-21T06:06:08;987.39;;;18.38;41.44
45071;BME280;30836;48.906;9.140;2023-03-21T06:07:09;987.37;;;18.44;41.29
45071;BME280;30836;48.906;9.140;2023-03-21T06:08:09;987.41;;;18.51;41.15
45071;BME280;30836;48.906;9.140;2023-03-21T06:09:10;987.39;;;18.56;40.98
45071;BME280;30836;48.906;9.140;2023-03-21T06:10:10;987.39;;;18.61;40.92
45071;BME280;30836;48.906;9.140;2023-03-21T06:11:16;987.43;;;18.67;40.74
45071;BME280;30836;48.906;9.140;2023-03-21T06:12:22;987.41;;;18.69;40.64
45071;BME280;30836;48.906;9.140;2023-03-21T06:12:32;987.43;;;18.67;40.61